createdAt,value
2019-05-28T00:01:53.236Z,8.27
2019-05-28T00:04:43.484Z,7.90
2019-05-28T00:07:33.862Z,7.83
2019-05-28T00:10:24.167Z,7.50
2019-05-28T00:13:14.639Z,7.60
2019-05-28T00:16:09.763Z,7.77
2019-05-28T00:18:57.912Z,7.57
2019-05-28T00:21:48.269Z,7.73
2019-05-28T00:24:38.576Z,7.33
2019-05-28T00:27:28.915Z,7.43
2019-05-28T00:30:21.047Z,7.70
2019-05-28T00:33:11.810Z,7.20
2019-05-28T00:36:02.176Z,7.53
2019-05-28T00:38:52.540Z,6.93
2019-05-28T00:41:42.891Z,6.33
2019-05-28T00:44:33.180Z,7.77
2019-05-28T00:47:23.527Z,6.90
2019-05-28T00:50:13.740Z,6.90
2019-05-28T00:53:04.082Z,7.70
2019-05-28T00:55:54.359Z,6.73
2019-05-28T00:58:44.660Z,6.93
2019-05-28T01:01:35.092Z,9.17
2019-05-28T01:04:25.662Z,6.90
2019-05-28T01:07:16.113Z,6.63
2019-05-28T01:10:07.098Z,6.40
2019-05-28T01:12:58.336Z,6.70
2019-05-28T01:15:48.711Z,7.13
2019-05-28T01:18:39.062Z,6.80
2019-05-28T01:21:29.359Z,7.30
2019-05-28T01:24:19.421Z,6.87
2019-05-28T01:27:09.498Z,8.30
2019-05-28T01:29:59.789Z,6.73
2019-05-28T01:32:51.375Z,6.60
2019-05-28T01:35:41.848Z,7.00
2019-05-28T01:38:32.119Z,7.00
2019-05-28T01:41:22.489Z,7.70
2019-05-28T01:44:12.752Z,6.97
2019-05-28T01:47:02.976Z,7.03
2019-05-28T01:49:53.291Z,6.30
2019-05-28T01:52:43.569Z,7.63
2019-05-28T01:55:33.675Z,7.70
2019-05-28T01:58:24.087Z,7.67
2019-05-28T02:01:14.213Z,7.50
2019-05-28T02:04:04.372Z,6.73
2019-05-28T02:06:54.590Z,6.67
2019-05-28T02:09:44.624Z,6.60
2019-05-28T02:12:34.802Z,6.47
2019-05-28T02:15:25.279Z,8.40
2019-05-28T02:18:15.608Z,7.40
2019-05-28T02:21:05.770Z,6.97
2019-05-28T02:23:55.764Z,6.87
2019-05-28T02:26:46.112Z,6.83
2019-05-28T02:29:36.498Z,7.47
2019-05-28T02:32:26.631Z,7.73
2019-05-28T02:35:16.989Z,7.50
2019-05-28T02:38:07.163Z,7.57
2019-05-28T02:40:57.459Z,8.00
2019-05-28T02:43:47.706Z,7.20
2019-05-28T02:46:37.987Z,7.30
2019-05-28T02:49:28.188Z,6.83
2019-05-28T02:52:18.552Z,6.47
2019-05-28T02:55:09.139Z,7.17
2019-05-28T02:57:59.255Z,9.67
2019-05-28T03:00:50.028Z,7.27
2019-05-28T03:03:40.687Z,7.93
2019-05-28T03:06:30.926Z,8.00
2019-05-28T03:09:20.965Z,7.77
2019-05-28T03:12:11.263Z,8.03
2019-05-28T03:15:01.320Z,8.67
2019-05-28T03:17:52.607Z,8.17
2019-05-28T03:20:42.630Z,8.43
2019-05-28T03:23:33.079Z,8.10
2019-05-28T03:26:23.850Z,9.07
2019-05-28T03:29:14.371Z,8.57
2019-05-28T03:32:08.779Z,7.83
2019-05-28T03:34:56.767Z,7.27
2019-05-28T03:37:46.989Z,7.73
2019-05-28T03:40:44.175Z,9.27
2019-05-28T03:43:34.462Z,10.57
2019-05-28T03:46:24.606Z,7.87
2019-05-28T03:49:14.738Z,9.13
2019-05-28T03:52:04.838Z,7.20
2019-05-28T03:54:55.129Z,8.00
2019-05-28T03:57:45.046Z,7.03
2019-05-28T04:00:35.324Z,8.03
2019-05-28T04:03:25.543Z,7.50
2019-05-28T04:06:15.816Z,7.03
2019-05-28T04:09:08.801Z,7.43
2019-05-28T04:12:03.141Z,8.93
2019-05-28T04:14:54.589Z,8.83
2019-05-28T04:17:44.931Z,7.07
2019-05-28T04:20:35.135Z,8.53
2019-05-28T04:23:25.196Z,7.20
2019-05-28T04:26:15.539Z,7.00
2019-05-28T04:29:06.400Z,7.37
2019-05-28T04:31:56.803Z,6.10
2019-05-28T04:34:47.361Z,5.75
2019-05-28T04:37:38.123Z,5.40
2019-05-28T04:40:28.959Z,5.58
2019-05-28T04:43:19.764Z,6.20
2019-05-28T04:46:10.409Z,5.83
2019-05-28T04:49:01.182Z,5.12
2019-05-28T04:51:52.016Z,5.47
2019-05-28T04:54:42.847Z,5.53
2019-05-28T04:57:33.792Z,5.10
2019-05-28T05:00:24.587Z,6.95
2019-05-28T05:03:15.633Z,5.00
2019-05-28T05:06:06.634Z,5.50
2019-05-28T05:08:57.675Z,5.22
2019-05-28T05:11:48.681Z,5.12
2019-05-28T05:14:39.479Z,5.12
2019-05-28T05:17:30.261Z,5.85
2019-05-28T05:20:21.066Z,5.28
2019-05-28T05:23:11.593Z,5.15
2019-05-28T05:26:02.940Z,4.70
2019-05-28T05:28:53.562Z,4.67
2019-05-28T05:31:44.182Z,4.85
2019-05-28T05:34:34.768Z,5.35
2019-05-28T05:37:25.493Z,5.28
2019-05-28T05:40:16.911Z,5.78
2019-05-28T05:43:07.533Z,7.03
2019-05-28T05:45:58.286Z,5.47
2019-05-28T05:48:49.312Z,5.70
2019-05-28T05:51:40.329Z,5.33
2019-05-28T05:54:31.438Z,4.92
2019-05-28T05:57:22.495Z,5.30
2019-05-28T06:00:13.528Z,5.17
2019-05-28T06:03:04.326Z,4.85
2019-05-28T06:05:55.111Z,4.80
2019-05-28T06:08:45.930Z,4.40
2019-05-28T06:11:36.532Z,5.27
2019-05-28T06:14:27.006Z,5.20
2019-05-28T06:17:17.395Z,4.73
2019-05-28T06:20:08.404Z,5.33
2019-05-28T06:22:59.047Z,5.00
2019-05-28T06:25:49.260Z,5.03
2019-05-28T06:28:39.840Z,5.40
2019-05-28T06:31:30.492Z,5.50
2019-05-28T06:34:21.281Z,5.73
2019-05-28T06:37:11.579Z,5.70
2019-05-28T06:40:01.800Z,5.13
2019-05-28T06:42:52.310Z,5.33
2019-05-28T06:45:42.679Z,5.00
2019-05-28T06:48:33.240Z,5.07
2019-05-28T06:51:23.819Z,6.23
2019-05-28T06:54:14.179Z,5.47
2019-05-28T06:57:21.557Z,6.83
2019-05-28T06:59:56.696Z,5.57
2019-05-28T07:02:47.367Z,6.17
2019-05-28T07:05:38.084Z,4.20
2019-05-28T07:08:28.564Z,4.80
2019-05-28T07:11:20.034Z,5.17
2019-05-28T07:14:10.508Z,5.60
2019-05-28T07:17:01.488Z,5.23
2019-05-28T07:19:52.151Z,4.70
2019-05-28T07:22:42.554Z,5.07
2019-05-28T07:25:32.804Z,4.80
2019-05-28T07:28:23.335Z,5.13
2019-05-28T07:31:14.012Z,5.07
2019-05-28T07:34:04.576Z,4.50
2019-05-28T07:36:55.222Z,4.60
2019-05-28T07:39:45.747Z,4.93
2019-05-28T07:42:36.253Z,5.07
2019-05-28T07:45:26.727Z,5.17
2019-05-28T07:48:17.281Z,4.70
2019-05-28T07:51:07.738Z,4.97
2019-05-28T07:53:58.094Z,4.93
2019-05-28T07:56:48.640Z,5.03
2019-05-28T07:59:39.309Z,5.63
2019-05-28T08:02:30.115Z,5.50
2019-05-28T08:05:20.962Z,6.08
2019-05-28T08:08:11.729Z,7.25
2019-05-28T08:11:02.429Z,5.60
2019-05-28T08:13:53.366Z,7.30
2019-05-28T08:16:52.347Z,7.50
2019-05-28T08:19:37.364Z,7.92
2019-05-28T08:22:41.580Z,7.03
2019-05-28T08:25:41.471Z,7.53
2019-05-28T08:28:19.764Z,7.85
2019-05-28T08:31:15.425Z,7.30
2019-05-28T08:33:57.462Z,7.42
2019-05-28T08:37:04.324Z,7.95
2019-05-28T08:39:40.885Z,7.05
2019-05-28T08:42:31.820Z,8.23
2019-05-28T08:45:22.834Z,7.35
2019-05-28T08:48:13.984Z,8.30
2019-05-28T08:51:04.730Z,7.45
2019-05-28T08:53:55.777Z,7.70
2019-05-28T08:56:46.547Z,8.18
2019-05-28T08:59:37.102Z,8.98
2019-05-28T09:02:28.930Z,8.60
2019-05-28T09:05:26.467Z,8.68
2019-05-28T09:08:12.048Z,8.13
2019-05-28T09:11:02.860Z,7.83
2019-05-28T09:13:54.010Z,8.15
2019-05-28T09:16:44.797Z,8.05
2019-05-28T09:19:35.417Z,7.83
2019-05-28T09:22:26.638Z,8.38
2019-05-28T09:25:17.765Z,7.90
2019-05-28T09:28:08.600Z,10.65
2019-05-28T09:30:59.258Z,8.68
2019-05-28T09:33:50.096Z,9.18
2019-05-28T09:36:41.014Z,8.30
2019-05-28T09:39:31.945Z,9.30
2019-05-28T09:42:23.216Z,9.20
2019-05-28T09:45:22.362Z,9.10
2019-05-28T09:48:06.971Z,9.05
2019-05-28T09:50:57.698Z,9.28
2019-05-28T09:53:48.590Z,7.37
2019-05-28T09:56:39.307Z,9.40
2019-05-28T09:59:41.021Z,9.80
2019-05-28T10:02:22.890Z,9.20
2019-05-28T10:05:13.745Z,9.15
2019-05-28T10:08:04.552Z,9.33
2019-05-28T10:10:55.167Z,9.53
2019-05-28T10:13:46.667Z,9.33
2019-05-28T10:16:37.601Z,9.93
2019-05-28T10:19:28.426Z,9.30
2019-05-28T10:22:19.354Z,9.60
2019-05-28T10:25:09.966Z,10.88
2019-05-28T10:28:01.921Z,9.03
2019-05-28T10:30:52.753Z,7.97
2019-05-28T10:33:43.810Z,9.63
2019-05-28T10:36:37.191Z,9.35
2019-05-28T10:39:27.160Z,8.88
2019-05-28T10:42:18.077Z,8.60
2019-05-28T10:45:09.532Z,8.08
2019-05-28T10:48:01.336Z,8.40
2019-05-28T10:50:52.425Z,7.55
2019-05-28T10:53:43.336Z,7.37
2019-05-28T10:56:34.025Z,7.42
2019-05-28T10:59:24.792Z,6.90
2019-05-28T11:02:15.535Z,6.87
2019-05-28T11:05:06.990Z,6.30
2019-05-28T11:07:57.850Z,9.00
2019-05-28T11:10:48.475Z,8.05
2019-05-28T11:13:52.481Z,7.03
2019-05-28T11:16:31.434Z,8.05
2019-05-28T11:19:22.464Z,8.60
2019-05-28T11:22:13.050Z,7.97
2019-05-28T11:25:03.974Z,11.30
2019-05-28T11:27:54.833Z,9.03
2019-05-28T11:30:45.567Z,6.70
2019-05-28T11:33:38.139Z,7.47
2019-05-28T11:36:28.740Z,8.83
2019-05-28T11:39:19.668Z,7.67
2019-05-28T11:42:10.596Z,9.13
2019-05-28T11:45:01.770Z,7.42
2019-05-28T11:47:52.851Z,8.30
2019-05-28T11:50:43.746Z,13.40
2019-05-28T11:53:36.751Z,11.20
2019-05-28T11:56:26.977Z,11.38
2019-05-28T11:59:17.672Z,13.80
2019-05-28T12:02:08.132Z,8.35
2019-05-28T12:04:59.066Z,12.73
2019-05-28T12:07:51.796Z,14.85
2019-05-28T12:10:42.644Z,8.98
2019-05-28T12:13:33.252Z,7.47
2019-05-28T12:16:24.185Z,7.20
2019-05-28T12:19:14.948Z,6.87
2019-05-28T12:22:06.151Z,6.83
2019-05-28T12:24:57.034Z,7.00
2019-05-28T12:27:48.145Z,7.03
2019-05-28T12:30:38.727Z,6.92
2019-05-28T12:33:29.648Z,6.55
2019-05-28T12:36:21.583Z,6.15
2019-05-28T12:39:12.568Z,6.42
2019-05-28T12:42:07.133Z,6.42
2019-05-28T12:45:08.812Z,6.10
2019-05-28T12:48:07.521Z,7.10
2019-05-28T12:50:41.388Z,6.60
2019-05-28T12:53:49.178Z,6.85
2019-05-28T12:56:24.811Z,8.48
2019-05-28T12:59:15.704Z,6.78
2019-05-28T13:02:06.717Z,6.30
2019-05-28T13:04:57.821Z,7.03
2019-05-28T13:08:06.266Z,6.78
2019-05-28T13:10:41.205Z,6.70
2019-05-28T13:13:32.303Z,6.65
2019-05-28T13:16:22.835Z,7.78
2019-05-28T13:19:13.849Z,6.47
2019-05-28T13:22:04.595Z,6.42
2019-05-28T13:24:55.330Z,6.55
2019-05-28T13:27:46.096Z,6.25
2019-05-28T13:30:37.090Z,6.90
2019-05-28T13:33:27.702Z,6.85
2019-05-28T13:36:18.525Z,6.58
2019-05-28T13:39:09.411Z,6.42
2019-05-28T13:42:00.297Z,6.40
2019-05-28T13:44:51.248Z,6.25
2019-05-28T13:47:41.867Z,6.58
2019-05-28T13:50:32.813Z,6.25
2019-05-28T13:53:23.554Z,6.28
2019-05-28T13:56:14.121Z,6.53
2019-05-28T13:59:04.785Z,6.67
2019-05-28T14:01:55.581Z,6.10
2019-05-28T14:04:46.486Z,6.78
2019-05-28T14:07:37.714Z,6.70
2019-05-28T14:10:28.577Z,6.70
2019-05-28T14:13:19.086Z,6.92
2019-05-28T14:16:09.934Z,6.70
2019-05-28T14:19:00.735Z,6.55
2019-05-28T14:21:51.622Z,6.70
2019-05-28T14:24:42.483Z,7.12
2019-05-28T14:27:33.574Z,7.50
2019-05-28T14:30:24.225Z,9.80
2019-05-28T14:33:15.341Z,10.25
2019-05-28T14:36:06.509Z,9.63
2019-05-28T14:39:03.181Z,9.48
2019-05-28T14:41:49.796Z,8.95
2019-05-28T14:44:43.234Z,9.38
2019-05-28T14:47:33.289Z,9.75
2019-05-28T14:50:24.300Z,10.25
2019-05-28T14:53:15.079Z,10.08
2019-05-28T14:56:05.924Z,9.40
2019-05-28T14:58:57.763Z,9.73
2019-05-28T15:01:48.622Z,8.13
2019-05-28T15:04:39.163Z,8.35
2019-05-28T15:07:29.973Z,7.40
2019-05-28T15:10:20.494Z,7.67
2019-05-28T15:13:11.093Z,7.00
2019-05-28T15:16:01.903Z,6.92
2019-05-28T15:18:52.572Z,7.20
2019-05-28T15:21:43.174Z,6.40
2019-05-28T15:24:34.133Z,6.67
2019-05-28T15:27:24.792Z,6.87
2019-05-28T15:30:18.340Z,6.85
2019-05-28T15:33:08.970Z,7.35
2019-05-28T15:35:59.961Z,7.42
2019-05-28T15:38:50.918Z,7.22
2019-05-28T15:41:44.376Z,7.22
2019-05-28T15:44:35.364Z,6.97
2019-05-28T15:47:26.316Z,7.65
2019-05-28T15:50:17.169Z,7.50
2019-05-28T15:53:07.872Z,6.80
2019-05-28T15:55:58.617Z,7.03
2019-05-28T15:58:49.289Z,8.40
2019-05-28T16:01:40.221Z,7.55
2019-05-28T16:04:31.093Z,7.20
2019-05-28T16:07:21.851Z,7.62
2019-05-28T16:10:12.728Z,8.13
2019-05-28T16:13:03.296Z,7.83
2019-05-28T16:15:54.215Z,8.43
2019-05-28T16:18:45.016Z,8.68
2019-05-28T16:21:35.748Z,7.70
2019-05-28T16:24:26.982Z,8.33
2019-05-28T16:27:17.768Z,8.25
2019-05-28T16:30:08.824Z,7.97
2019-05-28T16:33:00.355Z,8.38
2019-05-28T16:35:51.094Z,7.50
2019-05-28T16:38:41.933Z,8.68
2019-05-28T16:41:32.464Z,8.30
2019-05-28T16:44:23.058Z,8.25
2019-05-28T16:47:18.098Z,8.85
2019-05-28T16:50:06.352Z,9.95
2019-05-28T16:52:57.086Z,8.45
2019-05-28T16:55:47.949Z,8.10
2019-05-28T16:58:38.809Z,8.10
2019-05-28T17:01:29.184Z,8.00
2019-05-28T17:04:19.947Z,8.25
2019-05-28T17:07:10.686Z,7.75
2019-05-28T17:10:01.425Z,8.38
2019-05-28T17:12:51.395Z,8.80
2019-05-28T17:15:41.615Z,7.73
2019-05-28T17:18:32.162Z,9.30
2019-05-28T17:21:23.289Z,9.90
2019-05-28T17:24:14.704Z,8.98
2019-05-28T17:27:05.023Z,8.87
2019-05-28T17:30:15.460Z,8.93
2019-05-28T17:32:47.118Z,9.37
2019-05-28T17:35:37.577Z,9.03
2019-05-28T17:38:27.761Z,8.83
2019-05-28T17:41:19.976Z,9.33
2019-05-28T17:44:09.716Z,8.30
2019-05-28T17:47:00.099Z,8.43
2019-05-28T17:49:50.588Z,8.53
2019-05-28T17:52:40.685Z,8.37
2019-05-28T17:55:31.993Z,7.90
2019-05-28T17:58:22.269Z,8.60
2019-05-28T18:01:12.513Z,8.33
2019-05-28T18:04:02.761Z,7.97
2019-05-28T18:06:53.015Z,8.97
2019-05-28T18:09:43.332Z,8.43
2019-05-28T18:12:33.422Z,8.87
2019-05-28T18:15:23.567Z,8.03
2019-05-28T18:18:14.088Z,8.70
2019-05-28T18:21:04.531Z,9.00
2019-05-28T18:23:54.781Z,10.33
2019-05-28T18:26:45.083Z,8.87
2019-05-28T18:29:35.231Z,9.20
2019-05-28T18:32:25.515Z,9.10
2019-05-28T18:35:15.747Z,9.03
2019-05-28T18:38:06.093Z,8.37
2019-05-28T18:40:56.446Z,8.53
2019-05-28T18:43:46.720Z,8.73
2019-05-28T18:46:37.197Z,8.47
2019-05-28T18:49:27.696Z,9.00
2019-05-28T18:52:19.014Z,8.57
2019-05-28T18:55:09.316Z,8.90
2019-05-28T18:57:59.357Z,8.70
2019-05-28T19:00:49.341Z,9.80
2019-05-28T19:03:39.613Z,9.23
2019-05-28T19:06:30.018Z,9.10
2019-05-28T19:09:20.291Z,8.80
2019-05-28T19:12:10.417Z,8.67
2019-05-28T19:15:00.907Z,9.30
2019-05-28T19:17:52.266Z,10.70
2019-05-28T19:20:42.647Z,11.87
2019-05-28T19:23:33.030Z,9.33
2019-05-28T19:26:23.218Z,10.60
2019-05-28T19:29:13.254Z,10.30
2019-05-28T19:32:03.418Z,9.27
2019-05-28T19:34:53.724Z,11.07
2019-05-28T19:37:43.668Z,9.80
2019-05-28T19:40:36.534Z,9.37
2019-05-28T19:43:27.040Z,9.57
2019-05-28T19:46:17.143Z,9.23
2019-05-28T19:49:07.159Z,8.73
2019-05-28T19:51:57.655Z,8.90
2019-05-28T19:54:47.672Z,9.73
2019-05-28T19:57:37.862Z,10.53
2019-05-28T20:00:28.099Z,10.10
2019-05-28T20:03:18.333Z,11.27
2019-05-28T20:06:08.626Z,11.07
2019-05-28T20:08:58.707Z,11.50
2019-05-28T20:11:48.677Z,12.03
2019-05-28T20:14:38.822Z,12.00
2019-05-28T20:17:29.243Z,11.93
2019-05-28T20:20:19.380Z,11.47
2019-05-28T20:23:09.654Z,11.70
2019-05-28T20:25:59.916Z,11.23
2019-05-28T20:29:05.317Z,11.30
2019-05-28T20:31:41.732Z,12.53
2019-05-28T20:34:31.763Z,12.03
2019-05-28T20:37:22.023Z,11.93
2019-05-28T20:40:12.359Z,12.30
2019-05-28T20:43:04.152Z,11.60
2019-05-28T20:45:54.299Z,11.53
2019-05-28T20:48:44.768Z,12.70
2019-05-28T20:51:35.153Z,12.73
2019-05-28T20:54:25.408Z,12.77
2019-05-28T20:57:15.725Z,13.57
2019-05-28T21:00:06.836Z,12.20
2019-05-28T21:02:57.831Z,11.93
2019-05-28T21:05:48.472Z,11.53
2019-05-28T21:08:38.825Z,10.60
2019-05-28T21:11:29.231Z,10.93
2019-05-28T21:14:19.627Z,8.80
2019-05-28T21:17:09.987Z,7.20
2019-05-28T21:20:00.288Z,8.50
2019-05-28T21:22:51.785Z,8.77
2019-05-28T21:25:43.292Z,8.67
2019-05-28T21:28:34.482Z,8.37
2019-05-28T21:31:25.084Z,7.17
2019-05-28T21:34:15.349Z,9.10
2019-05-28T21:37:05.866Z,7.20
2019-05-28T21:39:57.359Z,6.50
2019-05-28T21:42:59.383Z,9.27
2019-05-28T21:45:39.653Z,7.10
2019-05-28T21:48:29.928Z,6.13
2019-05-28T21:51:19.954Z,9.63
2019-05-28T21:54:10.005Z,8.87
2019-05-28T21:56:59.975Z,8.13
2019-05-28T21:59:50.554Z,5.83
2019-05-28T22:02:40.911Z,7.03
2019-05-28T22:05:31.204Z,5.77
2019-05-28T22:08:21.367Z,5.97
2019-05-28T22:11:11.604Z,5.77
2019-05-28T22:14:02.208Z,3.60
2019-05-28T22:16:52.630Z,5.20
2019-05-28T22:19:42.900Z,6.10
2019-05-28T22:22:33.143Z,3.87
2019-05-28T22:25:23.465Z,5.97
2019-05-28T22:28:13.848Z,4.13
2019-05-28T22:31:04.261Z,5.03
2019-05-28T22:33:54.602Z,4.87
2019-05-28T22:36:44.835Z,3.73
2019-05-28T22:39:34.983Z,5.60
2019-05-28T22:42:25.000Z,4.63
2019-05-28T22:45:15.197Z,4.73
2019-05-28T22:48:07.578Z,3.30
2019-05-28T22:50:57.373Z,7.13
2019-05-28T22:53:47.443Z,2.80
2019-05-28T22:56:37.710Z,3.30
2019-05-28T22:59:28.008Z,3.57
2019-05-28T23:02:18.409Z,4.27
2019-05-28T23:05:09.311Z,3.03
2019-05-28T23:07:59.621Z,5.37
2019-05-28T23:10:49.885Z,4.17
2019-05-28T23:13:46.885Z,4.90
2019-05-28T23:16:31.678Z,4.43
2019-05-28T23:19:21.942Z,5.60
2019-05-28T23:22:12.188Z,5.23
2019-05-28T23:25:03.300Z,4.10
2019-05-28T23:27:53.672Z,4.97
2019-05-28T23:30:44.074Z,4.70
2019-05-28T23:33:35.456Z,5.17
2019-05-28T23:36:25.707Z,6.17
2019-05-28T23:39:16.102Z,8.47
2019-05-28T23:42:07.268Z,6.73
2019-05-28T23:44:57.592Z,5.60
2019-05-28T23:47:47.775Z,4.30
2019-05-28T23:50:38.060Z,5.33
2019-05-28T23:53:28.334Z,4.63
2019-05-28T23:56:18.561Z,6.00
2019-05-28T23:59:09.765Z,6.50
